Data for 06/16/2014

Time Sea-Level Adjusted Pressure Absolute Pressure Temperature Relative Humidity Dew Point   
(mb) (inHg) (mb) (inHg) (C) (F) (%) (C) (F)
00:05 1011 29.85 840 24.81 9.6 49.3 83 6.8 44.2
00:10 1011 29.85 840 24.81 9.4 49 84 6.8 44.3
00:15 1011 29.85 840 24.81 9.2 48.6 86 7 44.6
00:20 1011 29.85 840 24.81 9.1 48.4 87 7.1 44.7
00:25 1011 29.85 840 24.81 9.1 48.4 86 6.9 44.3
00:30 1011 29.85 840 24.81 9.1 48.3 86 6.9 44.5
00:35 1011 29.85 840 24.81 9 48.2 88 7.1 44.7
00:40 1011 29.85 840 24.81 8.9 48 87 6.8 44.3
00:45 1011 29.85 840 24.81 8.9 47.9 86 6.7 44.1
00:50 1011 29.85 840 24.81 8.7 47.7 86 6.5 43.8
00:55 1011 29.85 840 24.81 8.6 47.5 88 6.7 44
01:00 1011 29.85 840 24.81 8.5 47.4 87 6.5 43.7
01:05 1011 29.85 840 24.81 8.5 47.3 88 6.6 43.9
01:10 1011 29.85 840 24.81 8.5 47.3 87 6.5 43.6
01:15 1011 29.85 840 24.81 8.5 47.2 87 6.4 43.4
01:20 1011 29.85 840 24.81 8.5 47.2 87 6.5 43.6
01:25 1011 29.85 840 24.81 8.5 47.2 87 6.4 43.6
01:30 1011 29.85 840 24.81 8.5 47.2 87 6.5 43.6
01:35 1011 29.85 840 24.81 8.5 47.2 87 6.4 43.4
01:40 1011 29.85 840 24.81 8.5 47.2 87 6.5 43.7
01:45 1011 29.85 840 24.81 8.5 47.2 86 6.3 43.3
01:50 1011 29.85 840 24.81 8.4 47.2 86 6.2 43.1
01:55 1011 29.85 840 24.81 8.4 47.2 86 6.2 43.2
02:00 1011 29.85 840 24.81 8.4 47.1 86 6.3 43.3
02:05 1011 29.85 840 24.81 8.3 47 86 6.1 43
02:10 1011 29.85 840 24.81 8.3 46.9 86 6.1 43.1
02:15 1010 29.83 840 24.81 8.2 46.8 87 6.2 43.1
02:20 1010 29.83 840 24.81 8.2 46.8 87 6.2 43.1
02:25 1010 29.83 840 24.81 8.1 46.6 87 6.1 42.9
02:30 1010 29.83 840 24.81 8 46.5 87 6.1 42.9
02:35 1010 29.83 840 24.81 7.9 46.2 88 6 42.7
02:40 1010 29.83 840 24.81 7.8 46.1 88 6 42.8
02:45 1010 29.83 840 24.81 7.8 46 89 6.1 42.9
02:50 1010 29.83 840 24.81 7.7 45.9 90 6.2 43.1
02:55 1010 29.83 840 24.81 7.6 45.7 90 6.1 43
03:00 1010 29.83 840 24.81 7.5 45.4 91 6 42.9
03:05 1010 29.83 840 24.81 7.4 45.3 91 6 42.9
03:10 1011 29.85 840 24.81 7.5 45.4 91 6 42.9
03:15 1011 29.85 840 24.81 7.6 45.6 90 5.9 42.7
03:20 1010 29.83 840 24.81 7.6 45.7 90 6 42.8
03:25 1010 29.83 840 24.81 7.5 45.5 90 6 42.7
03:30 1010 29.83 840 24.81 7.6 45.7 89 6 42.8
03:35 1011 29.85 840 24.81 7.7 45.8 90 6.1 42.9
03:40 1011 29.85 840 24.81 7.7 45.9 90 6.1 43
03:45 1011 29.85 840 24.81 7.7 45.9 90 6.1 43
03:50 1011 29.85 840 24.81 7.6 45.6 90 6.1 42.9
03:55 1011 29.85 840 24.81 7.4 45.3 91 5.9 42.7
04:00 1011 29.85 840 24.81 7.4 45.3 90 5.9 42.6
04:05 1011 29.85 840 24.81 7.4 45.2 90 5.8 42.4
04:10 1011 29.85 840 24.81 7.3 45.1 89 5.6 42.1
04:15 1011 29.85 840 24.81 7.2 44.9 89 5.5 42
04:20 1011 29.85 840 24.81 7.1 44.7 90 5.5 41.9
04:25 1011 29.85 840 24.81 7 44.6 90 5.4 41.8
04:30 1011 29.85 840 24.81 6.9 44.5 90 5.4 41.7
04:35 1011 29.85 840 24.81 6.9 44.4 90 5.3 41.6
04:40 1011 29.85 840 24.81 6.8 44.2 90 5.3 41.5
04:45 1011 29.85 840 24.81 6.7 44.1 89 5.1 41.2
04:50 1011 29.85 840 24.81 6.7 44 89 5 40.9
04:55 1011 29.85 840 24.81 6.7 44 88 4.8 40.7
05:00 1011 29.85 840 24.81 6.8 44.2 87 4.8 40.7
05:05 1011 29.85 840 24.81 7 44.6 87 5 41
05:10 1011 29.85 840 24.81 7.1 44.8 86 5 41
05:15 1011 29.85 840 24.81 7.1 44.8 86 5 41
05:20 1011 29.85 840 24.81 7.1 44.8 86 4.9 40.8
05:25 1011 29.85 840 24.81 7.1 44.8 86 5 40.9
05:30 1011 29.85 840 24.81 7.2 44.9 87 5.2 41.3
05:35 1011 29.85 840 24.81 7.3 45.2 85 5 40.9
05:40 1010 29.83 840 24.81 7.3 45.2 85 5 41.1
05:45 1010 29.83 840 24.81 7.4 45.3 86 5.1 41.3
05:50 1011 29.85 840 24.81 7.5 45.5 85 5.2 41.4
05:55 1011 29.85 840 24.81 7.7 45.8 84 5.2 41.3
06:00 1011 29.85 840 24.81 7.7 45.8 84 5.2 41.4
06:05 1011 29.85 840 24.81 7.8 46 83 5.1 41.1
06:10 1011 29.85 840 24.81 8 46.4 83 5.2 41.4
06:15 1011 29.85 840 24.81 8 46.4 83 5.4 41.7
06:20 1010 29.83 840 24.81 8.3 47 80 5.1 41.2
06:25 1010 29.83 840 24.81 8.4 47.1 82 5.5 41.9
06:30 1010 29.83 840 24.81 8.6 47.5 80 5.4 41.7
06:35 1010 29.83 840 24.81 9.1 48.3 79 5.7 42.2
06:40 1010 29.83 840 24.81 9.6 49.3 76 5.5 42
06:45 1010 29.83 840 24.81 9.9 49.9 76 6 42.8
06:50 1010 29.83 839 24.78 10.4 50.6 73 5.7 42.3
06:55 1010 29.83 839 24.78 10.6 51.2 73 6.1 42.9
07:00 1010 29.83 839 24.78 10.7 51.3 74 6.3 43.3
07:05 1010 29.83 839 24.78 10.9 51.7 73 6.3 43.4
07:10 1010 29.83 839 24.78 11.3 52.4 71 6.2 43.2
07:15 1010 29.83 839 24.78 11.5 52.8 72 6.6 43.9
07:20 1010 29.83 839 24.78 11.3 52.3 72 6.4 43.5
07:25 1010 29.83 839 24.78 11.3 52.3 72 6.5 43.6
07:30 1010 29.83 839 24.78 11.4 52.4 72 6.5 43.7
07:35 1010 29.83 839 24.78 11.7 53 70 6.3 43.4
07:40 1010 29.83 839 24.78 11.2 52.2 70 6 42.8
07:45 1010 29.83 839 24.78 11.2 52.2 71 6.2 43.2
07:50 1010 29.83 839 24.78 11.7 53 68 6.1 43
07:55 1010 29.83 839 24.78 11.1 52.1 71 6 42.9
08:00 1010 29.83 839 24.78 11 51.9 70 5.8 42.5
08:05 1010 29.83 839 24.78 11.3 52.4 69 5.9 42.6
08:10 1010 29.83 839 24.78 11.6 52.9 68 5.9 42.7
08:15 1010 29.83 839 24.78 11.7 53.1 68 6 42.8
08:20 1010 29.83 839 24.78 11.9 53.4 66 5.8 42.4
08:25 1010 29.83 839 24.78 12.1 53.7 67 6.2 43.1
08:30 1010 29.83 839 24.78 12 53.6 64 5.5 42
08:35 1010 29.83 839 24.78 12.1 53.8 67 6.2 43.2
08:40 1009 29.8 839 24.78 12.5 54.6 64 6 42.8
08:45 1009 29.8 839 24.78 12.6 54.7 62 5.6 42.1
08:50 1009 29.8 839 24.78 12.5 54.4 63 5.7 42.3
08:55 1009 29.8 838 24.75 13.2 55.8 59 5.4 41.7
09:00 1009 29.8 838 24.75 14.5 58.1 54 5.3 41.5
09:05 1009 29.8 838 24.75 14.3 57.7 56 5.7 42.3
09:10 1009 29.8 838 24.75 14.4 57.8 53 5.1 41.1
09:15 1009 29.8 838 24.75 14.6 58.3 53 5.3 41.5
09:20 1009 29.8 838 24.75 14.9 58.7 53 5.5 42
09:25 1009 29.8 838 24.75 15.3 59.5 53 5.8 42.5
09:30 1009 29.8 838 24.75 14.5 58.1 55 5.6 42.1
09:35 1009 29.8 838 24.75 14.1 57.3 56 5.6 42.1
09:40 1009 29.8 838 24.75 13.3 56 57 4.9 40.9
09:45 1009 29.8 838 24.75 13.8 56.8 58 5.7 42.2
09:50 1009 29.8 838 24.75 14.8 58.6 56 6.1 43
09:55 1009 29.8 838 24.75 13.9 57.1 59 6.2 43.1
10:00 1009 29.8 838 24.75 13.9 57 57 5.7 42.2
10:05 1009 29.8 838 24.75 14 57.1 56 5.4 41.7
10:10 1009 29.8 838 24.75 13.4 56.1 59 5.6 42
10:15 1009 29.8 838 24.75 14.2 57.5 56 5.5 41.9
10:20 1009 29.8 838 24.75 14.6 58.2 56 6 42.9
10:25 1009 29.8 838 24.75 14.5 58.1 55 5.5 41.9
10:30 1008 29.77 838 24.75 14.5 58 56 6 42.8
10:35 1008 29.77 838 24.75 14.4 57.8 56 5.8 42.4
10:40 1008 29.77 838 24.75 14.1 57.3 57 5.8 42.5
10:45 1009 29.8 838 24.75 13.9 57 56 5.3 41.5
10:50 1009 29.8 838 24.75 13.6 56.5 56 5.1 41.1
10:55 1009 29.8 838 24.75 13.2 55.7 57 5 41
11:00 1009 29.8 839 24.78 12.8 55 65 6.4 43.5
11:05 1010 29.83 839 24.78 12.3 54.2 74 7.9 46.3
11:10 1010 29.83 839 24.78 11.5 52.8 78 7.9 46.3
11:15 1010 29.83 839 24.78 11.2 52.2 81 8.1 46.5
11:20 1009 29.8 839 24.78 11.2 52.2 80 7.9 46.2
11:25 1009 29.8 839 24.78 11.6 52.8 84 8.9 48
11:30 1009 29.8 838 24.75 12.3 54.1 79 8.7 47.7
11:35 1009 29.8 838 24.75 12.6 54.7 73 7.9 46.3
11:40 1009 29.8 838 24.75 12.4 54.3 77 8.5 47.3
11:45 1009 29.8 838 24.75 12.5 54.5 76 8.4 47.2
11:50 1009 29.8 838 24.75 12.6 54.6 73 7.9 46.3
11:55 1009 29.8 838 24.75 12.1 53.7 72 7.2 45
12:00 1009 29.8 838 24.75 11.4 52.5 73 6.6 44
12:05 1009 29.8 838 24.75 11.4 52.5 71 6.4 43.5
12:10 1009 29.8 838 24.75 11.5 52.6 72 6.6 44
12:15 1009 29.8 838 24.75 11.9 53.5 69 6.5 43.6
12:20 1009 29.8 838 24.75 11.8 53.2 68 6 42.8
12:25 1009 29.8 838 24.75 12.1 53.8 66 6 42.8
12:30 1009 29.8 838 24.75 12.1 53.7 61 4.9 40.8
12:35 1009 29.8 838 24.75 11.9 53.5 64 5.4 41.8
12:40 1009 29.8 838 24.75 12.4 54.3 63 5.6 42.2
12:45 1009 29.8 838 24.75 12.5 54.6 63 5.7 42.3
12:50 1009 29.8 838 24.75 12.9 55.1 60 5.3 41.6
12:55 1009 29.8 838 24.75 13 55.4 59 5.1 41.2
13:00 1009 29.8 838 24.75 13.1 55.6 58 5.1 41.1
13:05 1009 29.8 838 24.75 13.5 56.2 55 4.8 40.6
13:10 1009 29.8 838 24.75 13.4 56.1 61 6 42.8
13:15 1009 29.8 838 24.75 12.9 55.1 63 6.1 42.9
13:20 1009 29.8 838 24.75 12.7 54.9 62 5.7 42.2
13:25 1009 29.8 838 24.75 12.5 54.5 66 6.3 43.3
13:30 1009 29.8 838 24.75 12.2 54 75 8 46.4
13:35 1009 29.8 838 24.75 11.6 53 80 8.4 47.1
13:40 1009 29.8 838 24.75 11.3 52.3 84 8.6 47.5
13:45 1009 29.8 838 24.75 11.5 52.7 80 8.2 46.8
13:50 1009 29.8 838 24.75 11.8 53.2 83 8.9 48
13:55 1008 29.77 838 24.75 11.6 53 82 8.7 47.6
14:00 1008 29.77 838 24.75 11.4 52.5 85 9 48.2
14:05 1008 29.77 838 24.75 12 53.6 78 8.3 47
14:10 1009 29.8 838 24.75 12.3 54.1 76 8.1 46.6
14:15 1009 29.8 838 24.75 11.9 53.3 72 7 44.7
14:20 1009 29.8 838 24.75 12 53.6 77 8.2 46.8
14:25 1009 29.8 838 24.75 11.6 52.9 74 7.2 44.9
14:30 1009 29.8 838 24.75 11.5 52.7 80 8.1 46.6
14:35 1008 29.77 838 24.75 11.5 52.7 80 8.2 46.7
14:40 1008 29.77 837 24.72 11.1 52 79 7.6 45.7
14:45 1008 29.77 838 24.75 11.2 52.1 81 8.1 46.5
14:50 1008 29.77 838 24.75 11.2 52.1 81 8 46.5
14:55 1009 29.8 838 24.75 11.1 51.9 81 8 46.4
15:00 1009 29.8 838 24.75 11.1 52 80 7.8 46.1
15:05 1009 29.8 838 24.75 10.9 51.7 81 7.8 46.1
15:10 1009 29.8 838 24.75 11.3 52.3 78 7.7 45.8
15:15 1009 29.8 838 24.75 11.4 52.6 78 7.7 45.9
15:20 1009 29.8 838 24.75 11.4 52.4 75 7.2 45
15:25 1009 29.8 838 24.75 11.3 52.3 80 7.9 46.2
15:30 1009 29.8 838 24.75 11.3 52.3 79 7.9 46.2
15:35 1009 29.8 838 24.75 11.2 52.2 80 8 46.3
15:40 1009 29.8 838 24.75 11.1 52 79 7.7 45.9
15:45 1009 29.8 838 24.75 11.3 52.3 78 7.6 45.6
15:50 1009 29.8 838 24.75 11.5 52.7 79 8 46.3
15:55 1009 29.8 839 24.78 11.7 53 77 7.9 46.2
16:00 1010 29.83 839 24.78 11.4 52.6 81 8.3 46.9
16:05 1010 29.83 839 24.78 11.1 51.9 82 8.2 46.8
16:10 1010 29.83 839 24.78 10.5 50.9 85 8.2 46.7
16:15 1010 29.83 839 24.78 10.5 50.8 83 7.7 45.9
16:20 1010 29.83 839 24.78 10.5 50.9 86 8.2 46.7
16:25 1010 29.83 839 24.78 10.7 51.3 85 8.4 47.1
16:30 1010 29.83 839 24.78 10.9 51.6 84 8.2 46.8
16:35 1010 29.83 839 24.78 10.9 51.6 84 8.3 47
16:40 1010 29.83 839 24.78 11.1 51.9 84 8.4 47.2
16:45 1009 29.8 839 24.78 11.1 51.9 83 8.3 47
16:50 1009 29.8 839 24.78 10.9 51.6 82 7.9 46.2
16:55 1009 29.8 839 24.78 10.6 51.1 83 7.8 46.1
17:00 1010 29.83 839 24.78 10.8 51.4 82 7.8 46
17:05 1009 29.8 839 24.78 10.5 50.9 83 7.7 45.9
17:10 1010 29.83 839 24.78 10.2 50.4 83 7.5 45.5
17:15 1010 29.83 839 24.78 10 49.9 85 7.6 45.6
17:20 1009 29.8 839 24.78 10.1 50.1 84 7.6 45.6
17:25 1009 29.8 838 24.75 10.4 50.6 83 7.7 45.8
17:30 1009 29.8 839 24.78 10.5 50.8 83 7.7 45.8
17:35 1010 29.83 839 24.78 10.3 50.6 83 7.5 45.6
17:40 1010 29.83 839 24.78 10.4 50.6 83 7.6 45.7
17:45 1010 29.83 839 24.78 10.4 50.6 84 7.8 46.1
17:50 1010 29.83 839 24.78 10.3 50.6 84 7.7 45.8
17:55 1010 29.83 839 24.78 10.2 50.3 83 7.5 45.5
18:00 1010 29.83 839 24.78 10 50 84 7.5 45.5
18:05 1010 29.83 839 24.78 9.9 49.9 86 7.7 45.8
18:10 1010 29.83 839 24.78 9.9 49.8 86 7.6 45.7
18:15 1010 29.83 839 24.78 9.8 49.7 87 7.7 45.9
18:20 1010 29.83 839 24.78 9.6 49.3 88 7.8 46
18:25 1010 29.83 840 24.81 9.5 49 89 7.8 46.1
18:30 1010 29.83 840 24.81 9.4 48.8 90 7.7 45.9
18:35 1010 29.83 840 24.81 9.2 48.5 90 7.6 45.7
18:40 1010 29.83 840 24.81 9 48.3 90 7.4 45.4
18:45 1010 29.83 839 24.78 9 48.2 91 7.6 45.7
18:50 1010 29.83 839 24.78 9 48.2 92 7.7 45.9
18:55 1010 29.83 839 24.78 9.1 48.3 92 7.8 46.1
19:00 1010 29.83 839 24.78 8.9 48 92 7.7 45.8
19:05 1010 29.83 839 24.78 8.8 47.8 93 7.7 45.8
19:10 1010 29.83 839 24.78 8.7 47.7 92 7.6 45.6
19:15 1010 29.83 839 24.78 8.7 47.7 92 7.5 45.5
19:20 1010 29.83 840 24.81 8.7 47.6 91 7.3 45.2
19:25 1010 29.83 840 24.81 8.6 47.4 91 7.1 44.8
19:30 1010 29.83 840 24.81 8.5 47.3 90 7 44.6
19:35 1010 29.83 840 24.81 8.5 47.2 91 7.1 44.7
19:40 1010 29.83 839 24.78 8.5 47.2 91 7.1 44.8
19:45 1010 29.83 839 24.78 8.4 47.1 91 7.1 44.7
19:50 1010 29.83 839 24.78 8.4 47.2 91 7.1 44.7
19:55 1010 29.83 839 24.78 8.5 47.2 91 7.1 44.8
20:00 1010 29.83 839 24.78 8.5 47.3 92 7.2 45
20:05 1010 29.83 839 24.78 8.5 47.4 92 7.4 45.2
20:10 1010 29.83 839 24.78 8.6 47.4 93 7.4 45.4
20:15 1010 29.83 839 24.78 8.6 47.5 92 7.4 45.3
20:20 1010 29.83 839 24.78 8.8 47.8 89 7.1 44.7
20:25 1010 29.83 839 24.78 8.9 48 88 7.1 44.7
20:30 1010 29.83 839 24.78 9 48.2 87 7 44.6
20:35 1010 29.83 839 24.78 9 48.2 88 7.2 44.9
20:40 1010 29.83 839 24.78 9 48.2 87 6.9 44.4
20:45 1010 29.83 839 24.78 9 48.3 87 6.9 44.5
20:50 1010 29.83 839 24.78 9 48.2 86 6.7 44.1
20:55 1010 29.83 839 24.78 9 48.1 85 6.6 43.9
21:00 1010 29.83 839 24.78 9 48.3 83 6.4 43.5
21:05 1010 29.83 839 24.78 9.1 48.5 84 6.6 43.9
21:10 1010 29.83 839 24.78 9.1 48.3 85 6.7 44
21:15 1010 29.83 839 24.78 9 48.1 86 6.8 44.2
21:20 1010 29.83 839 24.78 9.1 48.3 85 6.6 44
21:25 1010 29.83 839 24.78 9.2 48.5 84 6.7 44
21:30 1010 29.83 839 24.78 9.2 48.5 84 6.6 43.9
21:35 1010 29.83 839 24.78 9.2 48.5 84 6.6 44
21:40 1010 29.83 839 24.78 9.2 48.5 85 6.8 44.2
21:45 1010 29.83 839 24.78 9.2 48.5 83 6.5 43.7
21:50 1010 29.83 839 24.78 9.3 48.8 84 6.7 44.1
21:55 1010 29.83 839 24.78 9.3 48.7 83 6.5 43.7
22:00 1010 29.83 839 24.78 9.3 48.7 84 6.7 44.1
22:05 1010 29.83 839 24.78 9 48.3 89 7.4 45.2
22:10 1010 29.83 839 24.78 8.6 47.5 91 7.2 45
22:15 1010 29.83 839 24.78 8.5 47.3 92 7.2 45
22:20 1010 29.83 839 24.78 8.4 47.1 92 7.2 45
22:25 1010 29.83 839 24.78 8.3 46.9 93 7.2 44.9
22:30 1010 29.83 839 24.78 8.2 46.8 93 7.1 44.8
22:35 1010 29.83 839 24.78 8.3 46.9 93 7.2 45
22:40 1010 29.83 839 24.78 8.4 47 94 7.4 45.3
22:45 1010 29.83 839 24.78 8.4 47.1 93 7.4 45.3
22:50 1010 29.83 839 24.78 8.2 46.8 93 7.2 45
22:55 1010 29.83 839 24.78 8.1 46.6 94 7.1 44.8
23:00 1010 29.83 839 24.78 8.1 46.5 94 7.1 44.9
23:05 1010 29.83 839 24.78 8.1 46.7 94 7.2 45
23:10 1010 29.83 839 24.78 8.1 46.6 94 7.2 44.9
23:15 1010 29.83 839 24.78 7.9 46.1 94 6.9 44.4
23:20 1010 29.83 839 24.78 7.8 46.1 94 6.9 44.5
23:25 1010 29.83 839 24.78 7.9 46.2 94 7 44.5
23:30 1010 29.83 839 24.78 7.8 46.1 94 6.9 44.4
23:35 1010 29.83 839 24.78 7.9 46.2 94 7 44.6
23:40 1010 29.83 839 24.78 7.8 46 94 6.9 44.4
23:45 1010 29.83 839 24.78 7.6 45.8 94 6.7 44.1
23:50 1010 29.83 839 24.78 7.5 45.6 94 6.6 44
23:55 1010 29.83 839 24.78 7.5 45.4 94 6.6 43.9
24:00 1010 29.83 839 24.78 7.5 45.6 94 6.7 44